sensor_id;sensor_type;location;lat;lon;timestamp;pressure;altitude;pressure_sealevel;temperature;humidity
68376;BME280;55318;52.068;5.188;2023-05-29T00:00:56;102493.0;;;13.24;77.38
68376;BME280;55318;52.068;5.188;2023-05-29T00:02:32;102494.0;;;13.26;77.27
68376;BME280;55318;52.068;5.188;2023-05-29T00:05:44;102490.00000000001;;;13.14;77.95
68376;BME280;55318;52.068;5.188;2023-05-29T00:07:20;102489.00000000001;;;13.17;78.05
68376;BME280;55318;52.068;5.188;2023-05-29T00:08:56;102491.00000000001;;;13.21;78.58
68376;BME280;55318;52.068;5.188;2023-05-29T00:10:33;102490.00000000001;;;13.28;77.88
68376;BME280;55318;52.068;5.188;2023-05-29T00:13:45;102489.00000000001;;;13.14;78.59
68376;BME280;55318;52.068;5.188;2023-05-29T00:15:21;102489.00000000001;;;13.14;78.37
68376;BME280;55318;52.068;5.188;2023-05-29T00:16:57;102489.00000000001;;;13.12;78.44
68376;BME280;55318;52.068;5.188;2023-05-29T00:20:11;102492.0;;;13.14;78.02
68376;BME280;55318;52.068;5.188;2023-05-29T00:21:47;102483.0;;;13.06;78.0
68376;BME280;55318;52.068;5.188;2023-05-29T00:23:23;102481.0;;;12.97;79.08
68376;BME280;55318;52.068;5.188;2023-05-29T00:26:35;102481.0;;;12.96;78.72
68376;BME280;55318;52.068;5.188;2023-05-29T00:28:11;102490.00000000001;;;12.92;78.72
68376;BME280;55318;52.068;5.188;2023-05-29T00:29:47;102486.99999999999;;;12.96;79.33
68376;BME280;55318;52.068;5.188;2023-05-29T00:32:59;102491.00000000001;;;12.89;78.45
68376;BME280;55318;52.068;5.188;2023-05-29T00:34:36;102492.0;;;12.73;79.22
68376;BME280;55318;52.068;5.188;2023-05-29T00:36:12;102493.0;;;12.77;79.58
68376;BME280;55318;52.068;5.188;2023-05-29T00:37:48;102495.0;;;12.59;79.69
68376;BME280;55318;52.068;5.188;2023-05-29T00:41:00;102499.0;;;12.75;79.02
68376;BME280;55318;52.068;5.188;2023-05-29T00:42:37;102504.0;;;12.86;78.52
68376;BME280;55318;52.068;5.188;2023-05-29T00:44:12;102506.0;;;12.71;79.05
68376;BME280;55318;52.068;5.188;2023-05-29T00:47:26;102511.99999999999;;;12.74;79.58
68376;BME280;55318;52.068;5.188;2023-05-29T00:49:04;102511.99999999999;;;12.65;79.53
68376;BME280;55318;52.068;5.188;2023-05-29T00:50:41;102518.0;;;12.76;80.36
68376;BME280;55318;52.068;5.188;2023-05-29T00:53:57;102519.0;;;12.67;79.38
68376;BME280;55318;52.068;5.188;2023-05-29T00:55:34;102517.0;;;12.92;78.78
68376;BME280;55318;52.068;5.188;2023-05-29T00:57:12;102517.0;;;12.92;78.16
68376;BME280;55318;52.068;5.188;2023-05-29T00:58:49;102518.0;;;12.7;78.83
68376;BME280;55318;52.068;5.188;2023-05-29T01:02:04;102516.00000000001;;;12.59;79.94
68376;BME280;55318;52.068;5.188;2023-05-29T01:03:41;102517.0;;;12.63;78.94
68376;BME280;55318;52.068;5.188;2023-05-29T01:05:17;102520.0;;;12.8;78.67
68376;BME280;55318;52.068;5.188;2023-05-29T01:08:30;102520.0;;;12.71;79.33
68376;BME280;55318;52.068;5.188;2023-05-29T01:10:07;102516.00000000001;;;12.68;78.61
68376;BME280;55318;52.068;5.188;2023-05-29T01:11:50;102518.0;;;12.57;79.19
68376;BME280;55318;52.068;5.188;2023-05-29T01:13:31;102517.0;;;12.66;79.64
68376;BME280;55318;52.068;5.188;2023-05-29T01:17:04;102520.0;;;12.55;79.36
68376;BME280;55318;52.068;5.188;2023-05-29T01:18:50;102519.0;;;12.51;79.02
68376;BME280;55318;52.068;5.188;2023-05-29T01:20:35;102527.0;;;12.44;79.45
68376;BME280;55318;52.068;5.188;2023-05-29T01:22:25;102528.0;;;12.41;80.45
68376;BME280;55318;52.068;5.188;2023-05-29T01:24:26;102528.0;;;12.39;79.22
68376;BME280;55318;52.068;5.188;2023-05-29T01:26:14;102534.99999999999;;;12.45;79.25
68376;BME280;55318;52.068;5.188;2023-05-29T01:27:58;102540.00000000001;;;12.35;79.25
68376;BME280;55318;52.068;5.188;2023-05-29T01:31:23;102548.0;;;12.31;79.94
68376;BME280;55318;52.068;5.188;2023-05-29T01:33:01;102551.0;;;12.37;79.05
68376;BME280;55318;52.068;5.188;2023-05-29T01:34:38;102550.0;;;12.34;79.7
68376;BME280;55318;52.068;5.188;2023-05-29T01:37:50;102552.0;;;12.49;78.3
68376;BME280;55318;52.068;5.188;2023-05-29T01:39:27;102550.0;;;12.24;80.19
68376;BME280;55318;52.068;5.188;2023-05-29T01:41:03;102550.0;;;12.37;78.97
68376;BME280;55318;52.068;5.188;2023-05-29T01:42:40;102551.0;;;12.26;79.0
68376;BME280;55318;52.068;5.188;2023-05-29T01:45:55;102555.0;;;12.1;79.87
68376;BME280;55318;52.068;5.188;2023-05-29T01:47:31;102554.0;;;12.2;79.52
68376;BME280;55318;52.068;5.188;2023-05-29T01:49:08;102553.0;;;12.11;80.33
68376;BME280;55318;52.068;5.188;2023-05-29T01:52:21;102556.0;;;12.07;80.66
68376;BME280;55318;52.068;5.188;2023-05-29T01:53:58;102556.0;;;12.08;80.34
68376;BME280;55318;52.068;5.188;2023-05-29T01:55:34;102553.0;;;12.08;80.44
68376;BME280;55318;52.068;5.188;2023-05-29T01:58:48;102556.0;;;12.03;80.27
68376;BME280;55318;52.068;5.188;2023-05-29T02:00:26;102557.0;;;11.96;79.92
68376;BME280;55318;52.068;5.188;2023-05-29T02:02:05;102563.00000000001;;;11.98;79.95
68376;BME280;55318;52.068;5.188;2023-05-29T02:03:42;102561.99999999999;;;11.98;80.64
68376;BME280;55318;52.068;5.188;2023-05-29T02:06:54;102565.00000000001;;;11.91;80.39
68376;BME280;55318;52.068;5.188;2023-05-29T02:08:30;102563.00000000001;;;11.91;80.55
68376;BME280;55318;52.068;5.188;2023-05-29T02:10:07;102566.00000000001;;;11.93;80.11
68376;BME280;55318;52.068;5.188;2023-05-29T02:13:20;102566.00000000001;;;11.94;80.62
68376;BME280;55318;52.068;5.188;2023-05-29T02:14:56;102568.0;;;11.84;80.75
68376;BME280;55318;52.068;5.188;2023-05-29T02:16:32;102566.00000000001;;;11.91;79.69
68376;BME280;55318;52.068;5.188;2023-05-29T02:18:10;102561.99999999999;;;11.95;80.91
68376;BME280;55318;52.068;5.188;2023-05-29T02:21:25;102554.0;;;11.91;81.19
68376;BME280;55318;52.068;5.188;2023-05-29T02:23:01;102550.0;;;11.81;80.78
68376;BME280;55318;52.068;5.188;2023-05-29T02:24:37;102549.0;;;11.82;80.97
68376;BME280;55318;52.068;5.188;2023-05-29T02:27:49;102544.0;;;11.89;79.8
68376;BME280;55318;52.068;5.188;2023-05-29T02:29:25;102543.0;;;11.87;80.0
68376;BME280;55318;52.068;5.188;2023-05-29T02:31:02;102548.0;;;11.77;81.05
68376;BME280;55318;52.068;5.188;2023-05-29T02:34:15;102550.0;;;11.83;80.24
68376;BME280;55318;52.068;5.188;2023-05-29T02:35:51;102556.0;;;11.77;80.69
68376;BME280;55318;52.068;5.188;2023-05-29T02:37:27;102557.0;;;11.79;81.55
68376;BME280;55318;52.068;5.188;2023-05-29T02:39:04;102553.0;;;11.79;80.77
68376;BME280;55318;52.068;5.188;2023-05-29T02:42:15;102555.0;;;11.7;81.13
68376;BME280;55318;52.068;5.188;2023-05-29T02:43:51;102559.99999999999;;;11.71;81.53
68376;BME280;55318;52.068;5.188;2023-05-29T02:45:27;102559.99999999999;;;11.72;82.52
68376;BME280;55318;52.068;5.188;2023-05-29T02:48:41;102558.99999999999;;;11.65;81.36
68376;BME280;55318;52.068;5.188;2023-05-29T02:50:17;102563.00000000001;;;11.61;81.8
68376;BME280;55318;52.068;5.188;2023-05-29T02:51:53;102559.99999999999;;;11.55;81.63
68376;BME280;55318;52.068;5.188;2023-05-29T02:55:07;102566.00000000001;;;11.55;82.36
68376;BME280;55318;52.068;5.188;2023-05-29T02:56:43;102558.99999999999;;;11.53;83.59
68376;BME280;55318;52.068;5.188;2023-05-29T02:58:20;102561.99999999999;;;11.55;82.8
68376;BME280;55318;52.068;5.188;2023-05-29T03:01:32;102558.0;;;11.63;81.62
68376;BME280;55318;52.068;5.188;2023-05-29T03:03:09;102556.0;;;11.57;82.89
68376;BME280;55318;52.068;5.188;2023-05-29T03:04:45;102563.00000000001;;;11.61;81.61
68376;BME280;55318;52.068;5.188;2023-05-29T03:06:21;102567.0;;;11.71;80.97
68376;BME280;55318;52.068;5.188;2023-05-29T03:09:34;102570.0;;;11.58;81.33
68376;BME280;55318;52.068;5.188;2023-05-29T03:11:10;102568.0;;;11.66;82.3
68376;BME280;55318;52.068;5.188;2023-05-29T03:12:46;102569.0;;;11.52;82.9
68376;BME280;55318;52.068;5.188;2023-05-29T03:15:58;102571.0;;;11.6;82.02
68376;BME280;55318;52.068;5.188;2023-05-29T03:17:34;102566.00000000001;;;11.49;81.73
68376;BME280;55318;52.068;5.188;2023-05-29T03:19:10;102569.0;;;11.49;82.17
68376;BME280;55318;52.068;5.188;2023-05-29T03:22:23;102561.99999999999;;;11.51;81.67
68376;BME280;55318;52.068;5.188;2023-05-29T03:23:59;102563.00000000001;;;11.47;82.34
68376;BME280;55318;52.068;5.188;2023-05-29T03:25:35;102555.0;;;11.36;82.34
68376;BME280;55318;52.068;5.188;2023-05-29T03:27:11;102556.0;;;11.37;83.63
68376;BME280;55318;52.068;5.188;2023-05-29T03:30:23;102553.0;;;11.38;83.4
68376;BME280;55318;52.068;5.188;2023-05-29T03:31:59;102555.0;;;11.48;83.02
68376;BME280;55318;52.068;5.188;2023-05-29T03:33:36;102554.0;;;11.38;82.54
68376;BME280;55318;52.068;5.188;2023-05-29T03:36:48;102557.0;;;11.45;82.32
68376;BME280;55318;52.068;5.188;2023-05-29T03:38:24;102569.0;;;11.34;82.77
68376;BME280;55318;52.068;5.188;2023-05-29T03:39:59;102571.0;;;11.28;82.85
68376;BME280;55318;52.068;5.188;2023-05-29T03:43:12;102567.0;;;11.29;84.17
68376;BME280;55318;52.068;5.188;2023-05-29T03:44:48;102568.0;;;11.26;83.06
68376;BME280;55318;52.068;5.188;2023-05-29T03:46:24;102567.0;;;11.26;82.49
68376;BME280;55318;52.068;5.188;2023-05-29T03:49:36;102568.0;;;11.29;83.24
68376;BME280;55318;52.068;5.188;2023-05-29T03:51:12;102566.00000000001;;;11.17;83.37
68376;BME280;55318;52.068;5.188;2023-05-29T03:52:48;102568.0;;;11.26;82.49
68376;BME280;55318;52.068;5.188;2023-05-29T03:54:25;102571.0;;;11.24;82.5
68376;BME280;55318;52.068;5.188;2023-05-29T03:57:37;102572.0;;;11.23;83.15
68376;BME280;55318;52.068;5.188;2023-05-29T03:59:13;102568.0;;;11.24;83.4
68376;BME280;55318;52.068;5.188;2023-05-29T04:00:49;102572.0;;;11.26;82.38
68376;BME280;55318;52.068;5.188;2023-05-29T04:04:02;102576.0;;;11.18;83.67
68376;BME280;55318;52.068;5.188;2023-05-29T04:05:38;102577.0;;;11.21;82.59
68376;BME280;55318;52.068;5.188;2023-05-29T04:07:14;102572.0;;;11.23;83.83
68376;BME280;55318;52.068;5.188;2023-05-29T04:10:26;102571.0;;;11.17;83.4
68376;BME280;55318;52.068;5.188;2023-05-29T04:12:03;102579.0;;;11.22;82.89
68376;BME280;55318;52.068;5.188;2023-05-29T04:13:39;102574.0;;;11.16;83.88
68376;BME280;55318;52.068;5.188;2023-05-29T04:15:15;102581.0;;;11.24;83.82
68376;BME280;55318;52.068;5.188;2023-05-29T04:18:28;102579.0;;;11.13;83.92
68376;BME280;55318;52.068;5.188;2023-05-29T04:20:05;102584.99999999999;;;11.17;84.12
68376;BME280;55318;52.068;5.188;2023-05-29T04:21:41;102586.99999999999;;;11.2;82.54
68376;BME280;55318;52.068;5.188;2023-05-29T04:24:53;102590.00000000001;;;11.19;82.85
68376;BME280;55318;52.068;5.188;2023-05-29T04:26:29;102589.00000000001;;;11.32;82.47
68376;BME280;55318;52.068;5.188;2023-05-29T04:28:06;102592.0;;;11.31;82.76
68376;BME280;55318;52.068;5.188;2023-05-29T04:31:18;102593.0;;;11.36;83.32
68376;BME280;55318;52.068;5.188;2023-05-29T04:32:54;102598.0;;;11.39;82.77
68376;BME280;55318;52.068;5.188;2023-05-29T04:34:30;102597.0;;;11.55;82.34
68376;BME280;55318;52.068;5.188;2023-05-29T04:37:42;102594.0;;;11.53;81.84
68376;BME280;55318;52.068;5.188;2023-05-29T04:39:18;102596.0;;;11.57;81.33
68376;BME280;55318;52.068;5.188;2023-05-29T04:40:56;102597.0;;;11.62;81.7
68376;BME280;55318;52.068;5.188;2023-05-29T04:42:32;102602.0;;;11.62;82.73
68376;BME280;55318;52.068;5.188;2023-05-29T04:45:44;102604.0;;;11.69;81.42
68376;BME280;55318;52.068;5.188;2023-05-29T04:47:20;102608.0;;;11.67;81.12
68376;BME280;55318;52.068;5.188;2023-05-29T04:48:56;102608.0;;;11.68;80.56
68376;BME280;55318;52.068;5.188;2023-05-29T04:52:08;102617.0;;;11.55;81.83
68376;BME280;55318;52.068;5.188;2023-05-29T04:53:44;102606.0;;;11.73;80.53
68376;BME280;55318;52.068;5.188;2023-05-29T04:55:20;102615.00000000001;;;11.61;80.94
68376;BME280;55318;52.068;5.188;2023-05-29T04:58:32;102613.00000000001;;;11.73;81.89
68376;BME280;55318;52.068;5.188;2023-05-29T05:00:09;102614.00000000001;;;11.67;81.05
68376;BME280;55318;52.068;5.188;2023-05-29T05:01:45;102611.99999999999;;;11.7;80.39
68376;BME280;55318;52.068;5.188;2023-05-29T05:04:58;102613.00000000001;;;11.8;80.47
68376;BME280;55318;52.068;5.188;2023-05-29T05:06:34;102616.00000000001;;;11.89;79.41
68376;BME280;55318;52.068;5.188;2023-05-29T05:08:10;102614.00000000001;;;11.89;79.06
68376;BME280;55318;52.068;5.188;2023-05-29T05:09:46;102616.00000000001;;;11.89;80.03
68376;BME280;55318;52.068;5.188;2023-05-29T05:12:59;102617.0;;;12.02;79.83
68376;BME280;55318;52.068;5.188;2023-05-29T05:14:35;102619.0;;;12.05;78.58
68376;BME280;55318;52.068;5.188;2023-05-29T05:16:11;102616.00000000001;;;11.96;78.14
68376;BME280;55318;52.068;5.188;2023-05-29T05:19:24;102615.00000000001;;;12.21;78.36
68376;BME280;55318;52.068;5.188;2023-05-29T05:21:00;102617.0;;;12.16;79.69
68376;BME280;55318;52.068;5.188;2023-05-29T05:22:36;102615.00000000001;;;12.36;78.02
68376;BME280;55318;52.068;5.188;2023-05-29T05:25:48;102617.0;;;12.38;77.98
68376;BME280;55318;52.068;5.188;2023-05-29T05:27:24;102615.00000000001;;;12.37;77.37
68376;BME280;55318;52.068;5.188;2023-05-29T05:29:01;102607.0;;;12.4;78.74
68376;BME280;55318;52.068;5.188;2023-05-29T05:30:37;102616.00000000001;;;12.43;76.81
68376;BME280;55318;52.068;5.188;2023-05-29T05:33:49;102616.00000000001;;;12.4;76.83
68376;BME280;55318;52.068;5.188;2023-05-29T05:35:25;102617.0;;;12.61;76.45
68376;BME280;55318;52.068;5.188;2023-05-29T05:37:01;102615.00000000001;;;12.6;76.19
68376;BME280;55318;52.068;5.188;2023-05-29T05:40:14;102622.0;;;12.76;75.88
68376;BME280;55318;52.068;5.188;2023-05-29T05:41:50;102627.0;;;12.58;74.69
68376;BME280;55318;52.068;5.188;2023-05-29T05:43:26;102622.0;;;12.81;74.77
68376;BME280;55318;52.068;5.188;2023-05-29T05:46:39;102627.0;;;12.85;74.61
68376;BME280;55318;52.068;5.188;2023-05-29T05:48:15;102630.0;;;12.86;75.08
68376;BME280;55318;52.068;5.188;2023-05-29T05:49:51;102625.0;;;12.97;75.03
68376;BME280;55318;52.068;5.188;2023-05-29T05:53:03;102631.0;;;12.91;73.83
68376;BME280;55318;52.068;5.188;2023-05-29T05:54:40;102630.0;;;13.18;73.2
68376;BME280;55318;52.068;5.188;2023-05-29T05:56:16;102633.99999999999;;;13.18;72.97
68376;BME280;55318;52.068;5.188;2023-05-29T05:57:52;102633.0;;;13.25;74.87
68376;BME280;55318;52.068;5.188;2023-05-29T06:01:04;102640.00000000001;;;13.26;73.52
68376;BME280;55318;52.068;5.188;2023-05-29T06:02:40;102640.00000000001;;;13.54;73.22
68376;BME280;55318;52.068;5.188;2023-05-29T06:04:17;102647.0;;;13.4;72.95
68376;BME280;55318;52.068;5.188;2023-05-29T06:07:29;102647.0;;;13.36;72.28
68376;BME280;55318;52.068;5.188;2023-05-29T06:09:05;102644.0;;;13.67;73.66
68376;BME280;55318;52.068;5.188;2023-05-29T06:10:41;102642.0;;;13.77;72.13
68376;BME280;55318;52.068;5.188;2023-05-29T06:13:53;102644.0;;;13.89;71.67
68376;BME280;55318;52.068;5.188;2023-05-29T06:15:29;102640.00000000001;;;13.98;70.89
68376;BME280;55318;52.068;5.188;2023-05-29T06:17:05;102646.0;;;13.93;69.53
68376;BME280;55318;52.068;5.188;2023-05-29T06:18:42;102644.0;;;13.87;69.19
68376;BME280;55318;52.068;5.188;2023-05-29T06:21:54;102643.0;;;13.95;69.88
68376;BME280;55318;52.068;5.188;2023-05-29T06:23:30;102643.0;;;14.05;69.75
68376;BME280;55318;52.068;5.188;2023-05-29T06:25:06;102645.0;;;14.01;68.58
68376;BME280;55318;52.068;5.188;2023-05-29T06:28:18;102654.0;;;14.11;68.94
68376;BME280;55318;52.068;5.188;2023-05-29T06:29:55;102645.0;;;14.25;69.16
68376;BME280;55318;52.068;5.188;2023-05-29T06:31:31;102633.99999999999;;;14.31;66.52
68376;BME280;55318;52.068;5.188;2023-05-29T06:34:43;102638.00000000001;;;14.52;64.59
68376;BME280;55318;52.068;5.188;2023-05-29T06:36:19;102641.00000000001;;;14.71;65.13
68376;BME280;55318;52.068;5.188;2023-05-29T06:37:55;102641.00000000001;;;14.77;65.98
68376;BME280;55318;52.068;5.188;2023-05-29T06:41:08;102638.00000000001;;;14.9;63.43
68376;BME280;55318;52.068;5.188;2023-05-29T06:42:44;102640.00000000001;;;14.95;63.15
68376;BME280;55318;52.068;5.188;2023-05-29T06:44:20;102643.0;;;15.21;62.28
68376;BME280;55318;52.068;5.188;2023-05-29T06:45:56;102643.0;;;15.17;61.67
68376;BME280;55318;52.068;5.188;2023-05-29T06:49:08;102643.0;;;15.41;62.84
68376;BME280;55318;52.068;5.188;2023-05-29T06:50:45;102650.0;;;15.67;63.96
68376;BME280;55318;52.068;5.188;2023-05-29T06:52:21;102659.99999999999;;;15.4;60.81
68376;BME280;55318;52.068;5.188;2023-05-29T06:55:33;102664.00000000001;;;15.43;61.5
68376;BME280;55318;52.068;5.188;2023-05-29T06:57:09;102667.0;;;15.69;60.69
68376;BME280;55318;52.068;5.188;2023-05-29T06:58:45;102659.99999999999;;;15.53;61.58
68376;BME280;55318;52.068;5.188;2023-05-29T07:01:57;102650.0;;;15.9;64.74
68376;BME280;55318;52.068;5.188;2023-05-29T07:03:34;102652.0;;;16.2;60.77
68376;BME280;55318;52.068;5.188;2023-05-29T07:05:10;102654.0;;;16.38;58.79
68376;BME280;55318;52.068;5.188;2023-05-29T07:08:22;102657.0;;;16.25;58.91
68376;BME280;55318;52.068;5.188;2023-05-29T07:09:59;102657.0;;;16.64;62.75
68376;BME280;55318;52.068;5.188;2023-05-29T07:11:35;102658.0;;;16.68;58.31
68376;BME280;55318;52.068;5.188;2023-05-29T07:13:15;102663.00000000001;;;16.77;58.87
68376;BME280;55318;52.068;5.188;2023-05-29T07:16:28;102659.99999999999;;;16.71;57.25
68376;BME280;55318;52.068;5.188;2023-05-29T07:18:04;102653.0;;;17.16;58.7
68376;BME280;55318;52.068;5.188;2023-05-29T07:19:40;102658.0;;;17.45;59.11
68376;BME280;55318;52.068;5.188;2023-05-29T07:22:53;102656.0;;;17.41;56.61
68376;BME280;55318;52.068;5.188;2023-05-29T07:24:29;102663.00000000001;;;17.43;57.89
68376;BME280;55318;52.068;5.188;2023-05-29T07:26:05;102664.00000000001;;;17.68;58.9
68376;BME280;55318;52.068;5.188;2023-05-29T07:29:18;102667.0;;;17.77;55.37
68376;BME280;55318;52.068;5.188;2023-05-29T07:30:54;102668.0;;;18.02;54.75
68376;BME280;55318;52.068;5.188;2023-05-29T07:32:30;102673.0;;;17.72;52.89
68376;BME280;55318;52.068;5.188;2023-05-29T07:34:06;102672.0;;;17.52;53.64
68376;BME280;55318;52.068;5.188;2023-05-29T07:37:18;102666.00000000001;;;17.21;55.47
68376;BME280;55318;52.068;5.188;2023-05-29T07:38:55;102661.99999999999;;;17.16;54.21
68376;BME280;55318;52.068;5.188;2023-05-29T07:40:31;102666.00000000001;;;17.22;55.63
68376;BME280;55318;52.068;5.188;2023-05-29T07:43:43;102666.00000000001;;;17.29;55.96
68376;BME280;55318;52.068;5.188;2023-05-29T07:45:19;102675.0;;;17.63;55.28
68376;BME280;55318;52.068;5.188;2023-05-29T07:46:55;102669.0;;;17.68;54.15
68376;BME280;55318;52.068;5.188;2023-05-29T07:50:08;102667.0;;;18.02;56.08
68376;BME280;55318;52.068;5.188;2023-05-29T07:51:45;102667.0;;;18.07;53.31
68376;BME280;55318;52.068;5.188;2023-05-29T07:53:21;102669.0;;;18.38;55.74
68376;BME280;55318;52.068;5.188;2023-05-29T07:54:57;102668.0;;;18.04;52.61
68376;BME280;55318;52.068;5.188;2023-05-29T07:58:09;102671.0;;;18.28;52.52
68376;BME280;55318;52.068;5.188;2023-05-29T07:59:45;102658.99999999999;;;18.41;53.5
68376;BME280;55318;52.068;5.188;2023-05-29T08:01:21;102673.0;;;18.34;51.92
68376;BME280;55318;52.068;5.188;2023-05-29T08:04:34;102674.0;;;18.56;54.19
68376;BME280;55318;52.068;5.188;2023-05-29T08:06:10;102673.0;;;18.66;52.49
68376;BME280;55318;52.068;5.188;2023-05-29T08:07:46;102674.0;;;18.86;55.93
68376;BME280;55318;52.068;5.188;2023-05-29T08:10:58;102671.0;;;18.66;50.77
68376;BME280;55318;52.068;5.188;2023-05-29T08:12:34;102681.0;;;18.39;50.89
68376;BME280;55318;52.068;5.188;2023-05-29T08:14:11;102677.0;;;18.5;56.34
68376;BME280;55318;52.068;5.188;2023-05-29T08:17:23;102676.0;;;18.57;52.8
68376;BME280;55318;52.068;5.188;2023-05-29T08:18:59;102679.0;;;18.73;51.36
68376;BME280;55318;52.068;5.188;2023-05-29T08:20:35;102677.0;;;18.77;53.83
68376;BME280;55318;52.068;5.188;2023-05-29T08:22:12;102679.0;;;18.91;51.7
68376;BME280;55318;52.068;5.188;2023-05-29T08:25:25;102681.0;;;18.81;51.42
68376;BME280;55318;52.068;5.188;2023-05-29T08:27:02;102683.99999999999;;;18.39;49.06
68376;BME280;55318;52.068;5.188;2023-05-29T08:28:38;102677.0;;;18.78;52.1
68376;BME280;55318;52.068;5.188;2023-05-29T08:31:51;102688.00000000001;;;18.95;52.22
68376;BME280;55318;52.068;5.188;2023-05-29T08:33:27;102680.0;;;18.89;50.78
68376;BME280;55318;52.068;5.188;2023-05-29T08:35:04;102682.0;;;18.95;52.59
68376;BME280;55318;52.068;5.188;2023-05-29T08:38:15;102690.00000000001;;;18.96;48.9
68376;BME280;55318;52.068;5.188;2023-05-29T08:39:50;102683.0;;;19.0;51.87
68376;BME280;55318;52.068;5.188;2023-05-29T08:41:32;102677.0;;;18.78;51.3
68376;BME280;55318;52.068;5.188;2023-05-29T08:43:16;102682.0;;;18.62;49.17
68376;BME280;55318;52.068;5.188;2023-05-29T08:46:33;102680.0;;;18.59;48.82
68376;BME280;55318;52.068;5.188;2023-05-29T08:48:10;102688.00000000001;;;18.5;48.89
68376;BME280;55318;52.068;5.188;2023-05-29T08:49:52;102682.0;;;18.78;50.04
68376;BME280;55318;52.068;5.188;2023-05-29T08:51:32;102682.0;;;19.12;52.07
68376;BME280;55318;52.068;5.188;2023-05-29T08:54:48;102688.00000000001;;;18.86;49.74
68376;BME280;55318;52.068;5.188;2023-05-29T08:56:24;102688.00000000001;;;19.2;51.32
68376;BME280;55318;52.068;5.188;2023-05-29T08:58:00;102683.99999999999;;;19.22;50.61
68376;BME280;55318;52.068;5.188;2023-05-29T09:01:18;102683.0;;;19.34;51.82
68376;BME280;55318;52.068;5.188;2023-05-29T09:02:55;102683.99999999999;;;19.16;48.28
68376;BME280;55318;52.068;5.188;2023-05-29T09:04:30;102692.0;;;19.06;49.84
68376;BME280;55318;52.068;5.188;2023-05-29T09:06:07;102689.00000000001;;;19.05;48.62
68376;BME280;55318;52.068;5.188;2023-05-29T09:09:19;102690.00000000001;;;19.52;52.59
68376;BME280;55318;52.068;5.188;2023-05-29T09:10:56;102693.0;;;19.45;49.94
68376;BME280;55318;52.068;5.188;2023-05-29T09:12:32;102695.0;;;19.54;48.88
68376;BME280;55318;52.068;5.188;2023-05-29T09:16:07;102696.0;;;19.5;49.47
68376;BME280;55318;52.068;5.188;2023-05-29T09:17:43;102696.0;;;19.61;51.11
68376;BME280;55318;52.068;5.188;2023-05-29T09:19:19;102698.0;;;19.0;46.88
68376;BME280;55318;52.068;5.188;2023-05-29T09:20:55;102696.0;;;19.34;49.34
68376;BME280;55318;52.068;5.188;2023-05-29T09:24:08;102700.0;;;19.52;48.47
68376;BME280;55318;52.068;5.188;2023-05-29T09:25:44;102698.0;;;19.68;49.75
68376;BME280;55318;52.068;5.188;2023-05-29T09:27:27;102698.0;;;19.86;51.01
68376;BME280;55318;52.068;5.188;2023-05-29T09:29:03;102690.00000000001;;;19.82;50.06
68376;BME280;55318;52.068;5.188;2023-05-29T09:32:17;102694.0;;;19.91;49.15
68376;BME280;55318;52.068;5.188;2023-05-29T09:33:54;102697.0;;;19.95;48.18
68376;BME280;55318;52.068;5.188;2023-05-29T09:35:34;102695.0;;;19.96;46.1
68376;BME280;55318;52.068;5.188;2023-05-29T09:38:48;102693.0;;;20.05;46.76
68376;BME280;55318;52.068;5.188;2023-05-29T09:40:25;102694.0;;;19.93;46.28
68376;BME280;55318;52.068;5.188;2023-05-29T09:42:01;102692.0;;;19.93;45.15
68376;BME280;55318;52.068;5.188;2023-05-29T09:45:17;102691.00000000001;;;19.82;44.92
68376;BME280;55318;52.068;5.188;2023-05-29T09:46:57;102694.0;;;19.86;46.21
68376;BME280;55318;52.068;5.188;2023-05-29T09:48:35;102686.99999999999;;;20.0;47.42
68376;BME280;55318;52.068;5.188;2023-05-29T09:50:18;102692.0;;;20.06;47.27
68376;BME280;55318;52.068;5.188;2023-05-29T09:53:31;102692.0;;;20.0;47.17
68376;BME280;55318;52.068;5.188;2023-05-29T09:55:08;102683.99999999999;;;19.93;46.67
68376;BME280;55318;52.068;5.188;2023-05-29T09:56:44;102683.0;;;20.02;47.63
68376;BME280;55318;52.068;5.188;2023-05-29T09:58:21;102677.0;;;20.18;46.71
68376;BME280;55318;52.068;5.188;2023-05-29T10:01:38;102676.0;;;20.11;47.17
68376;BME280;55318;52.068;5.188;2023-05-29T10:03:15;102678.0;;;20.09;44.47
68376;BME280;55318;52.068;5.188;2023-05-29T10:04:51;102675.0;;;19.73;47.2
68376;BME280;55318;52.068;5.188;2023-05-29T10:08:05;102677.0;;;19.79;47.88
68376;BME280;55318;52.068;5.188;2023-05-29T10:09:45;102673.0;;;19.52;47.72
68376;BME280;55318;52.068;5.188;2023-05-29T10:11:23;102667.0;;;20.02;49.21
68376;BME280;55318;52.068;5.188;2023-05-29T10:13:01;102667.0;;;20.02;47.88
68376;BME280;55318;52.068;5.188;2023-05-29T10:18:00;102672.0;;;20.16;48.25
68376;BME280;55318;52.068;5.188;2023-05-29T10:19:40;102672.0;;;20.02;48.19
68376;BME280;55318;52.068;5.188;2023-05-29T10:22:56;102670.0;;;20.02;49.13
68376;BME280;55318;52.068;5.188;2023-05-29T10:24:36;102669.0;;;20.03;48.05
68376;BME280;55318;52.068;5.188;2023-05-29T10:26:15;102674.0;;;20.2;48.61
68376;BME280;55318;52.068;5.188;2023-05-29T10:27:59;102675.0;;;19.97;45.87
68376;BME280;55318;52.068;5.188;2023-05-29T10:31:23;102673.0;;;20.16;47.39
68376;BME280;55318;52.068;5.188;2023-05-29T10:33:10;102664.00000000001;;;20.45;48.41
68376;BME280;55318;52.068;5.188;2023-05-29T10:35:10;102670.0;;;20.18;46.85
68376;BME280;55318;52.068;5.188;2023-05-29T10:36:56;102667.0;;;20.36;46.99
68376;BME280;55318;52.068;5.188;2023-05-29T10:38:37;102668.0;;;20.52;47.04
68376;BME280;55318;52.068;5.188;2023-05-29T10:40:22;102671.0;;;20.0;43.53